Time;durP1;ratioP1;P1;durP2;ratioP2;P2;SDS_P1;SDS_P2;PMS_P1;PMS_P2;Temp;Humidity;BMP_temperature;BMP_pressure;BME280_temperature;BME280_humidity;BME280_pressure;Samples;Min_cycle;Max_cycle;Signal;HPM_P1;HPM_P2
2022/07/22 00:00:34;;;;;;;5.55;4.32;;;23.50;99.90;;;;;;5048776;28;20216;-85
2022/07/22 00:03:23;;;;;;;5.85;4.80;;;23.40;99.90;;;;;;5075314;28;20224;-84
2022/07/22 00:06:12;;;;;;;14.45;5.47;;;23.40;99.90;;;;;;5078488;28;20306;-85
2022/07/22 00:09:01;;;;;;;6.28;5.00;;;23.30;99.90;;;;;;5058970;28;20220;-85
2022/07/22 00:11:49;;;;;;;6.70;4.82;;;23.30;99.90;;;;;;5072375;28;20307;-83
2022/07/22 00:14:38;;;;;;;7.78;4.55;;;23.30;99.90;;;;;;5079270;28;20590;-81
2022/07/22 00:17:28;;;;;;;11.18;5.40;;;23.30;99.90;;;;;;5065485;28;20231;-80
2022/07/22 00:20:17;;;;;;;9.18;4.93;;;23.20;99.90;;;;;;5064633;28;20244;-81
2022/07/22 00:23:05;;;;;;;8.52;5.15;;;23.20;99.90;;;;;;5049343;28;20216;-84
2022/07/22 00:25:54;;;;;;;10.85;4.80;;;23.20;99.90;;;;;;5081744;28;20226;-84
2022/07/22 00:28:43;;;;;;;9.02;4.82;;;23.20;99.90;;;;;;5065931;28;20235;-84
2022/07/22 00:31:32;;;;;;;9.15;5.03;;;23.00;99.90;;;;;;5066211;28;20216;-83
2022/07/22 00:34:22;;;;;;;8.30;4.75;;;23.20;99.90;;;;;;5070524;28;20225;-83
2022/07/22 00:37:12;;;;;;;7.82;4.80;;;23.10;99.90;;;;;;5054114;28;20224;-84
2022/07/22 00:40:01;;;;;;;7.65;5.40;;;23.10;99.90;;;;;;5063072;28;20301;-86
2022/07/22 00:42:50;;;;;;;9.75;6.15;;;23.00;99.90;;;;;;5078380;28;20634;-85
2022/07/22 00:45:39;;;;;;;8.43;5.10;;;23.00;99.90;;;;;;5063189;28;20219;-85
2022/07/22 00:48:27;;;;;;;7.82;5.32;;;23.00;99.90;;;;;;5081870;28;20282;-85
2022/07/22 00:51:20;;;;;;;10.00;5.15;;;22.90;99.90;;;;;;5085724;28;20224;-85
2022/07/22 00:54:09;;;;;;;6.57;5.05;;;22.90;99.90;;;;;;5063575;28;20243;-85
2022/07/22 00:56:58;;;;;;;10.32;5.35;;;22.80;99.90;;;;;;5063495;28;20229;-84
2022/07/22 00:59:47;;;;;;;8.80;4.90;;;22.80;99.90;;;;;;5048748;28;20636;-84
2022/07/22 01:02:36;;;;;;;6.72;4.82;;;22.90;99.90;;;;;;5052290;28;20228;-85
2022/07/22 01:05:24;;;;;;;10.20;4.95;;;22.90;99.90;;;;;;5031971;28;20640;-85
2022/07/22 01:08:15;;;;;;;6.35;4.65;;;22.90;99.90;;;;;;5043865;28;20217;-81
2022/07/22 01:11:11;;;;;;;6.05;4.35;;;22.80;99.90;;;;;;5043006;28;20277;-80
2022/07/22 01:14:00;;;;;;;7.63;4.78;;;22.90;99.90;;;;;;5038549;28;20228;-80
2022/07/22 01:16:48;;;;;;;7.47;4.47;;;22.90;99.90;;;;;;5046860;28;20780;-84
2022/07/22 01:19:38;;;;;;;8.55;4.30;;;22.90;99.90;;;;;;5035866;28;20221;-81
2022/07/22 01:22:28;;;;;;;10.07;4.57;;;22.90;99.90;;;;;;5042836;28;20636;-81
2022/07/22 01:25:20;;;;;;;9.80;4.40;;;22.80;99.90;;;;;;5062766;28;20921;-84
2022/07/22 01:28:09;;;;;;;8.63;4.70;;;22.80;99.90;;;;;;5033351;28;20268;-85
2022/07/22 01:30:58;;;;;;;9.00;4.60;;;22.90;99.90;;;;;;5064643;28;20224;-85
2022/07/22 01:33:47;;;;;;;8.30;4.38;;;22.80;99.90;;;;;;5040808;28;20225;-83
2022/07/22 01:36:35;;;;;;;7.88;4.80;;;22.80;99.90;;;;;;5047274;28;20837;-82
2022/07/22 01:39:25;;;;;;;12.93;4.72;;;22.90;99.90;;;;;;5053736;28;20217;-79
2022/07/22 01:42:14;;;;;;;6.85;4.43;;;22.90;99.90;;;;;;5014599;28;20655;-80
2022/07/22 01:45:05;;;;;;;8.90;4.82;;;22.80;99.90;;;;;;5029164;28;20229;-80
2022/07/22 01:47:53;;;;;;;7.40;4.25;;;22.80;99.90;;;;;;5044079;28;20258;-80
2022/07/22 01:50:42;;;;;;;8.32;4.60;;;22.90;99.90;;;;;;5024377;28;20225;-85
2022/07/22 01:53:31;;;;;;;7.50;4.47;;;22.80;99.90;;;;;;5046553;28;20229;-85
2022/07/22 01:56:22;;;;;;;9.52;4.80;;;22.80;99.90;;;;;;5053769;28;20308;-83
2022/07/22 01:59:11;;;;;;;7.90;4.72;;;22.80;99.90;;;;;;5048004;28;20216;-83
2022/07/22 02:01:59;;;;;;;7.03;4.30;;;22.70;99.90;;;;;;5031070;28;20293;-83
2022/07/22 02:04:48;;;;;;;5.70;4.03;;;22.70;99.90;;;;;;5082715;28;20631;-83
2022/07/22 02:07:37;;;;;;;9.15;4.63;;;22.70;99.90;;;;;;5062166;28;20242;-80
2022/07/22 02:10:26;;;;;;;9.00;4.63;;;22.70;99.90;;;;;;5050463;28;20231;-80
2022/07/22 02:13:16;;;;;;;8.05;4.25;;;22.60;99.90;;;;;;5054106;28;20231;-79
2022/07/22 02:16:06;;;;;;;8.40;4.60;;;22.60;99.90;;;;;;5044789;28;20302;-81
2022/07/22 02:18:57;;;;;;;9.23;4.57;;;22.60;99.90;;;;;;5046840;28;20220;-80
2022/07/22 02:21:47;;;;;;;7.10;4.63;;;22.50;99.90;;;;;;5060295;28;20224;-81
2022/07/22 02:24:36;;;;;;;11.00;4.95;;;22.50;99.90;;;;;;5071535;28;20219;-80
2022/07/22 02:27:24;;;;;;;7.80;4.68;;;22.50;99.90;;;;;;5067853;28;20239;-83
2022/07/22 02:30:14;;;;;;;6.78;4.50;;;22.50;99.90;;;;;;5063344;28;20293;-82
2022/07/22 02:33:04;;;;;;;9.30;4.50;;;22.50;99.90;;;;;;5084419;28;20224;-82
2022/07/22 02:35:53;;;;;;;9.38;5.10;;;22.40;99.90;;;;;;5051420;28;20314;-80
2022/07/22 02:38:42;;;;;;;9.85;4.78;;;22.40;99.90;;;;;;5052152;28;20725;-80
2022/07/22 02:41:31;;;;;;;7.40;4.80;;;22.40;99.90;;;;;;5052062;28;20816;-81
2022/07/22 02:44:20;;;;;;;10.10;5.07;;;22.40;99.90;;;;;;5053268;28;20560;-85
2022/07/22 02:47:10;;;;;;;7.80;4.90;;;22.40;99.90;;;;;;5063316;28;20256;-84
2022/07/22 02:49:59;;;;;;;9.05;5.03;;;22.50;99.90;;;;;;5050693;28;20734;-84
2022/07/22 02:52:48;;;;;;;7.93;5.07;;;22.50;99.90;;;;;;5055910;28;20356;-84
2022/07/22 02:55:38;;;;;;;9.55;5.00;;;22.50;99.90;;;;;;5049468;28;20223;-84
2022/07/22 02:58:27;;;;;;;8.68;5.40;;;22.50;99.90;;;;;;5059996;28;20220;-84
2022/07/22 03:01:16;;;;;;;7.82;5.32;;;22.40;99.90;;;;;;5053319;28;20706;-83
2022/07/22 03:04:13;;;;;;;9.02;5.15;;;22.30;99.90;;;;;;5051942;28;20239;-83
2022/07/22 03:07:02;;;;;;;11.95;5.50;;;22.40;99.90;;;;;;5059530;28;20226;-84
2022/07/22 03:09:53;;;;;;;12.15;5.47;;;22.40;99.90;;;;;;5054805;28;20224;-84
2022/07/22 03:12:51;;;;;;;12.25;5.25;;;22.30;99.90;;;;;;5056370;28;20284;-84
2022/07/22 03:15:40;;;;;;;8.00;5.45;;;22.30;99.90;;;;;;5068222;28;20227;-80
2022/07/22 03:18:29;;;;;;;11.82;6.05;;;22.30;99.90;;;;;;5067232;28;20235;-80
2022/07/22 03:21:19;;;;;;;7.05;5.28;;;22.20;99.90;;;;;;5052717;28;20221;-80
2022/07/22 03:24:09;;;;;;;10.50;5.43;;;22.20;99.90;;;;;;5073035;28;20362;-80
2022/07/22 03:26:58;;;;;;;9.93;5.55;;;22.20;99.90;;;;;;5051941;28;20220;-84
2022/07/22 03:29:47;;;;;;;13.20;5.93;;;22.20;99.90;;;;;;5061277;28;20226;-85
2022/07/22 03:32:35;;;;;;;15.68;6.75;;;22.20;99.90;;;;;;5064957;28;20204;-85
2022/07/22 03:35:24;;;;;;;11.30;6.10;;;22.20;99.90;;;;;;5048955;28;20561;-85
2022/07/22 03:38:14;;;;;;;12.95;5.70;;;22.30;99.90;;;;;;5061762;28;20227;-81
2022/07/22 03:41:04;;;;;;;11.77;5.80;;;22.40;99.90;;;;;;5050326;28;20303;-82
2022/07/22 03:43:53;;;;;;;10.25;5.80;;;22.30;99.90;;;;;;5050082;28;20219;-80
2022/07/22 03:46:41;;;;;;;9.73;5.68;;;22.30;99.90;;;;;;5054433;28;20359;-80
2022/07/22 03:49:31;;;;;;;16.65;5.78;;;22.40;99.90;;;;;;5078548;28;20220;-80
2022/07/22 03:52:20;;;;;;;13.10;5.68;;;22.30;99.90;;;;;;5051684;28;20231;-80
2022/07/22 03:55:10;;;;;;;10.25;5.80;;;22.40;99.90;;;;;;5051258;28;20273;-84
2022/07/22 03:57:59;;;;;;;15.20;5.95;;;22.50;99.90;;;;;;5050829;28;20217;-84
2022/07/22 04:00:50;;;;;;;17.98;6.53;;;22.50;99.90;;;;;;5055023;28;20224;-85
2022/07/22 04:03:40;;;;;;;12.80;6.25;;;22.50;99.90;;;;;;5068983;28;20220;-85
2022/07/22 04:06:51;;;;;;;11.90;6.53;;;22.50;99.90;;;;;;5053979;28;20702;-84
2022/07/22 04:09:46;;;;;;;10.60;6.18;;;22.60;99.90;;;;;;5049578;28;20307;-80
2022/07/22 04:12:38;;;;;;;10.30;6.05;;;22.70;99.90;;;;;;5052956;28;20224;-84
2022/07/22 04:15:35;;;;;;;13.27;6.68;;;22.70;99.90;;;;;;5054608;28;20225;-84
2022/07/22 04:18:23;;;;;;;10.63;5.90;;;22.70;99.90;;;;;;5050521;28;20235;-84
2022/07/22 04:21:12;;;;;;;9.88;6.10;;;22.80;99.90;;;;;;5071196;28;20216;-80
2022/07/22 04:24:11;;;;;;;15.88;6.00;;;22.90;99.90;;;;;;5050724;28;20235;-85
2022/07/22 04:27:00;;;;;;;15.25;6.30;;;22.90;99.90;;;;;;5065618;28;20219;-85
2022/07/22 04:29:50;;;;;;;15.02;6.10;;;23.00;99.90;;;;;;5058386;28;21020;-85
2022/07/22 04:32:39;;;;;;;9.48;6.40;;;23.00;99.90;;;;;;5060678;28;20220;-85
2022/07/22 04:35:28;;;;;;;8.38;5.65;;;23.20;99.90;;;;;;5056682;28;20220;-86
2022/07/22 04:38:29;;;;;;;13.90;6.30;;;23.20;99.90;;;;;;5059071;28;20297;-85
2022/07/22 04:41:22;;;;;;;12.60;6.03;;;23.30;99.90;;;;;;5070392;28;20216;-85
2022/07/22 04:44:12;;;;;;;9.80;5.97;;;23.40;99.90;;;;;;5053447;28;20228;-86
2022/07/22 04:47:02;;;;;;;8.60;5.68;;;23.50;99.90;;;;;;5058341;28;20574;-87
2022/07/22 04:49:56;;;;;;;9.02;5.00;;;23.60;99.90;;;;;;5078894;28;20235;-86
2022/07/22 04:52:46;;;;;;;7.07;4.90;;;23.70;99.90;;;;;;5056022;28;20230;-86
2022/07/22 04:55:38;;;;;;;6.75;4.70;;;23.80;99.90;;;;;;5047291;28;20220;-85
2022/07/22 04:58:27;;;;;;;5.72;4.63;;;23.80;99.90;;;;;;5059262;28;20224;-80
2022/07/22 05:01:17;;;;;;;7.90;5.28;;;23.90;99.90;;;;;;5074771;28;20221;-85
2022/07/22 05:04:11;;;;;;;12.32;5.20;;;24.00;99.90;;;;;;5085917;28;20227;-85
2022/07/22 05:07:03;;;;;;;13.38;5.85;;;24.10;99.90;;;;;;5053487;28;20556;-85
2022/07/22 05:09:51;;;;;;;14.23;6.25;;;24.20;99.90;;;;;;5055893;28;20224;-84
2022/07/22 05:12:40;;;;;;;10.48;4.93;;;24.30;99.90;;;;;;5092647;28;20266;-85
2022/07/22 05:15:29;;;;;;;11.88;5.60;;;24.40;99.90;;;;;;5077653;28;20834;-81
2022/07/22 05:18:19;;;;;;;12.90;5.47;;;24.40;99.90;;;;;;5055020;28;20216;-82
2022/07/22 05:21:09;;;;;;;16.45;5.88;;;24.50;99.90;;;;;;5062736;28;20225;-77
2022/07/22 05:23:57;;;;;;;8.93;5.85;;;24.60;99.90;;;;;;5045245;28;20377;-76
2022/07/22 05:26:46;;;;;;;14.27;6.20;;;24.60;99.90;;;;;;5057766;28;20235;-76
2022/07/22 05:29:35;;;;;;;13.60;5.82;;;24.80;99.90;;;;;;5064626;28;20223;-77
2022/07/22 05:32:23;;;;;;;10.15;5.95;;;25.20;99.90;;;;;;5063441;28;20799;-77
2022/07/22 05:35:18;;;;;;;7.25;5.75;;;25.50;99.90;;;;;;5067585;28;21545;-78
2022/07/22 05:38:07;;;;;;;13.73;6.28;;;25.50;99.90;;;;;;5049212;28;20221;-79
2022/07/22 05:40:56;;;;;;;11.30;5.00;;;25.40;99.90;;;;;;5062954;28;20696;-78
2022/07/22 05:43:45;;;;;;;13.07;5.55;;;25.40;99.90;;;;;;5062948;28;20228;-78
2022/07/22 05:46:34;;;;;;;12.52;5.15;;;25.40;99.90;;;;;;5046219;28;20216;-78
2022/07/22 05:49:25;;;;;;;6.25;4.78;;;25.50;99.90;;;;;;5048571;28;20231;-80
2022/07/22 05:52:19;;;;;;;8.40;4.75;;;25.60;99.90;;;;;;5048490;28;20700;-82
2022/07/22 05:55:09;;;;;;;9.85;4.60;;;25.80;99.90;;;;;;5062877;28;20280;-78
2022/07/22 05:57:58;;;;;;;7.95;4.90;;;25.70;99.90;;;;;;5050534;28;20227;-79
2022/07/22 06:00:47;;;;;;;8.48;4.70;;;25.80;99.90;;;;;;5057282;28;20220;-76
2022/07/22 06:03:35;;;;;;;10.43;5.07;;;26.00;99.90;;;;;;5057877;28;20228;-76
2022/07/22 06:06:24;;;;;;;5.80;4.72;;;26.50;99.90;;;;;;5073214;28;20221;-77
2022/07/22 06:09:14;;;;;;;12.27;4.70;;;27.50;99.90;;;;;;5045930;28;20303;-77
2022/07/22 06:12:05;;;;;;;10.45;4.72;;;27.50;96.80;;;;;;5034654;28;20220;-76
2022/07/22 06:14:53;;;;;;;21.95;4.85;;;27.20;96.30;;;;;;5040242;28;20231;-76
2022/07/22 06:17:42;;;;;;;12.50;4.30;;;27.00;96.30;;;;;;5050706;28;20257;-76
2022/07/22 06:20:31;;;;;;;7.47;4.50;;;26.90;96.20;;;;;;5046582;28;20229;-77
2022/07/22 06:23:20;;;;;;;6.30;4.47;;;27.00;95.60;;;;;;5050696;28;20354;-76
2022/07/22 06:26:08;;;;;;;9.95;4.00;;;26.90;96.20;;;;;;5060610;28;20907;-75
2022/07/22 06:28:59;;;;;;;7.72;4.32;;;26.90;96.90;;;;;;5042718;28;20927;-77
2022/07/22 06:31:48;;;;;;;9.02;4.60;;;27.00;96.90;;;;;;5042379;28;20231;-76
2022/07/22 06:34:36;;;;;;;8.45;3.92;;;27.10;95.70;;;;;;5059390;28;20338;-76
2022/07/22 06:37:26;;;;;;;8.25;3.90;;;27.20;95.00;;;;;;5059027;28;20280;-76
2022/07/22 06:40:35;;;;;;;15.02;4.65;;;27.10;94.00;;;;;;5054641;28;20216;-75
2022/07/22 06:43:44;;;;;;;8.68;4.82;;;27.20;94.10;;;;;;5062174;28;20281;-76
2022/07/22 06:46:53;;;;;;;12.73;4.05;;;27.30;94.80;;;;;;5054995;28;20223;-77
2022/07/22 06:49:44;;;;;;;7.53;4.10;;;27.30;94.10;;;;;;5049228;28;20232;-76
2022/07/22 06:52:32;;;;;;;12.00;4.30;;;27.20;94.40;;;;;;5048750;28;20216;-76
2022/07/22 06:55:22;;;;;;;9.73;4.13;;;27.40;94.70;;;;;;5077058;28;20225;-76
2022/07/22 06:58:21;;;;;;;12.57;4.60;;;27.50;94.40;;;;;;5074739;28;20266;-79
2022/07/22 07:01:10;;;;;;;9.98;4.78;;;27.60;94.40;;;;;;5057107;28;20239;-80
2022/07/22 07:04:11;;;;;;;9.63;4.93;;;27.70;94.50;;;;;;5050872;28;20593;-77
2022/07/22 07:07:00;;;;;;;12.13;4.82;;;27.90;94.70;;;;;;5050542;28;20220;-78
2022/07/22 07:09:53;;;;;;;6.60;4.13;;;28.00;94.80;;;;;;5065054;28;20220;-77
2022/07/22 07:12:50;;;;;;;8.55;4.75;;;28.10;94.30;;;;;;5048701;28;20228;-77
2022/07/22 07:15:44;;;;;;;6.90;4.55;;;28.30;94.50;;;;;;5062152;28;20232;-79
2022/07/22 07:18:34;;;;;;;13.38;4.85;;;28.60;94.70;;;;;;5061495;28;20243;-78
2022/07/22 07:21:25;;;;;;;11.65;4.25;;;28.70;94.40;;;;;;5047768;28;20212;-78
2022/07/22 07:24:15;;;;;;;11.02;4.75;;;28.90;92.10;;;;;;5045893;28;20223;-81
2022/07/22 07:27:04;;;;;;;12.45;5.13;;;28.90;92.30;;;;;;5076173;28;20216;-83
2022/07/22 07:29:53;;;;;;;10.25;4.85;;;29.20;93.90;;;;;;5048504;28;20310;-80
2022/07/22 07:32:42;;;;;;;16.40;5.65;;;29.30;92.00;;;;;;5061715;28;20275;-81
2022/07/22 07:35:33;;;;;;;9.30;5.10;;;29.70;94.00;;;;;;5050690;28;20226;-78
2022/07/22 07:38:24;;;;;;;8.82;5.28;;;29.90;92.70;;;;;;5058428;28;20224;-79
2022/07/22 07:41:14;;;;;;;9.02;4.90;;;30.00;90.60;;;;;;5072635;28;20223;-80
2022/07/22 07:44:04;;;;;;;11.60;5.30;;;30.40;90.60;;;;;;5068609;28;20217;-80
2022/07/22 07:46:53;;;;;;;7.45;4.75;;;30.80;87.40;;;;;;5062766;28;20277;-76
2022/07/22 07:49:41;;;;;;;14.55;4.90;;;31.30;83.40;;;;;;5048112;28;20749;-79
2022/07/22 07:52:30;;;;;;;16.85;5.32;;;31.70;80.40;;;;;;5057826;28;20227;-75
2022/07/22 07:55:21;;;;;;;11.10;5.15;;;32.00;81.20;;;;;;5056972;28;20221;-75
2022/07/22 07:58:10;;;;;;;8.43;5.10;;;32.50;77.20;;;;;;5049611;28;20220;-76
2022/07/22 08:01:02;;;;;;;14.32;5.25;;;32.80;77.70;;;;;;5060130;28;20324;-77
2022/07/22 08:03:50;;;;;;;12.52;5.10;;;33.00;75.10;;;;;;5076327;28;20231;-76
2022/07/22 08:07:00;;;;;;;16.67;5.88;;;33.30;75.50;;;;;;5049401;28;20234;-76
2022/07/22 08:09:48;;;;;;;17.10;6.20;;;33.60;70.50;;;;;;5061955;28;20224;-75
2022/07/22 08:13:15;;;;;;;13.15;5.88;;;33.80;69.00;;;;;;5061035;28;20223;-76
2022/07/22 08:16:08;;;;;;;10.70;5.43;;;34.20;67.20;;;;;;5061509;28;20228;-76
2022/07/22 08:18:58;;;;;;;8.68;5.32;;;34.50;67.80;;;;;;5060686;28;20602;-76
2022/07/22 08:21:48;;;;;;;10.48;6.10;;;34.60;66.20;;;;;;5063192;28;20228;-87
2022/07/22 08:24:44;;;;;;;15.15;7.28;;;34.80;65.90;;;;;;5052579;28;20561;-75
2022/07/22 08:27:36;;;;;;;14.57;6.95;;;34.80;66.80;;;;;;5051330;28;21196;-77
2022/07/22 08:30:28;;;;;;;19.00;7.13;;;35.10;66.00;;;;;;5051890;28;20215;-77
2022/07/22 08:33:18;;;;;;;11.75;7.20;;;35.10;64.10;;;;;;5073221;28;20232;-78
2022/07/22 08:36:07;;;;;;;14.40;7.82;;;35.30;64.20;;;;;;5047820;28;20220;-77
2022/07/22 08:38:56;;;;;;;16.50;7.82;;;35.40;63.50;;;;;;5047010;28;20224;-77
2022/07/22 08:41:46;;;;;;;14.23;8.18;;;35.50;63.10;;;;;;5044173;28;20230;-76
2022/07/22 08:44:35;;;;;;;19.52;9.13;;;35.70;63.00;;;;;;5072730;28;20586;-76
2022/07/22 08:47:25;;;;;;;12.50;8.73;;;35.90;64.90;;;;;;5064939;28;20934;-77
2022/07/22 08:50:39;;;;;;;13.57;8.65;;;36.00;64.00;;;;;;5057784;28;20220;-78
2022/07/22 08:53:48;;;;;;;15.90;8.43;;;36.20;64.00;;;;;;5025234;28;20714;-79
2022/07/22 08:56:39;;;;;;;19.17;8.50;;;36.40;62.80;;;;;;5045399;28;20657;-81
2022/07/22 08:59:27;;;;;;;17.55;8.85;;;36.80;63.60;;;;;;5040053;28;20234;-79
2022/07/22 09:02:16;;;;;;;15.40;8.45;;;36.90;59.90;;;;;;5060775;28;20232;-82
2022/07/22 09:05:09;;;;;;;15.07;9.30;;;37.20;61.80;;;;;;5056414;28;20219;-78
2022/07/22 09:08:18;;;;;;;20.45;9.70;;;37.60;62.30;;;;;;5046247;28;20223;-78
2022/07/22 09:11:18;;;;;;;14.48;9.52;;;38.00;62.20;;;;;;5045441;28;20384;-78
2022/07/22 09:14:26;;;;;;;14.80;9.27;;;38.30;60.30;;;;;;5059484;28;20586;-81
2022/07/22 09:17:40;;;;;;;18.30;8.80;;;38.70;58.50;;;;;;5056141;28;20726;-78
2022/07/22 09:20:59;;;;;;;17.10;10.00;;;39.10;58.60;;;;;;5058274;28;20239;-78
2022/07/22 09:23:59;;;;;;;18.67;9.40;;;;;;;;;;5045387;28;20211;-78
2022/07/22 09:26:48;;;;;;;14.07;8.90;;;40.50;54.80;;;;;;5045522;28;20594;-76
2022/07/22 09:29:56;;;;;;;11.45;9.05;;;40.90;53.00;;;;;;5072127;28;20255;-77
2022/07/22 09:32:53;;;;;;;17.48;9.95;;;41.20;53.70;;;;;;5076602;28;20219;-76
2022/07/22 09:36:05;;;;;;;13.98;9.73;;;40.80;54.20;;;;;;5074917;28;20388;-76
2022/07/22 09:38:57;;;;;;;16.17;9.02;;;40.70;55.40;;;;;;5044380;28;20716;-77
2022/07/22 09:41:58;;;;;;;15.35;9.38;;;40.90;53.70;;;;;;5046589;28;20277;-77
2022/07/22 09:44:48;;;;;;;13.15;9.02;;;41.80;53.60;;;;;;5060943;28;20594;-76
2022/07/22 09:47:47;;;;;;;20.73;9.40;;;41.50;53.20;;;;;;5068440;28;20224;-77
2022/07/22 09:50:57;;;;;;;14.52;9.10;;;41.10;52.90;;;;;;5060155;28;20235;-76
2022/07/22 09:54:08;;;;;;;17.90;9.55;;;40.50;54.80;;;;;;5068200;28;20212;-76
2022/07/22 09:56:57;;;;;;;13.63;9.45;;;40.60;54.50;;;;;;5050385;28;20238;-79
2022/07/22 09:59:46;;;;;;;11.18;8.43;;;40.70;55.00;;;;;;5040502;28;20224;-77
2022/07/22 10:02:48;;;;;;;18.13;9.25;;;40.70;53.90;;;;;;5043482;28;20373;-78
2022/07/22 10:05:40;;;;;;;11.25;9.55;;;39.90;56.20;;;;;;5040774;28;20232;-76
2022/07/22 10:08:32;;;;;;;15.30;9.60;;;39.10;57.50;;;;;;5044141;28;20271;-77
2022/07/22 10:11:22;;;;;;;14.10;8.85;;;39.20;56.80;;;;;;5044996;28;20227;-76
2022/07/22 10:14:12;;;;;;;15.35;9.32;;;39.70;57.20;;;;;;5039752;28;20235;-77
2022/07/22 10:17:09;;;;;;;12.18;8.63;;;39.70;57.80;;;;;;5042595;28;20220;-77
2022/07/22 10:19:59;;;;;;;11.48;7.50;;;39.20;56.50;;;;;;5076445;28;20219;-76
2022/07/22 10:22:50;;;;;;;19.10;8.93;;;39.10;56.10;;;;;;5058575;28;20215;-79
2022/07/22 10:25:52;;;;;;;12.48;8.27;;;39.40;55.40;;;;;;5044632;28;20251;-77
2022/07/22 10:28:43;;;;;;;14.45;8.55;;;39.10;55.80;;;;;;5038985;28;20211;-76
2022/07/22 10:31:32;;;;;;;15.32;8.48;;;39.40;56.90;;;;;;5063584;28;20263;-79
2022/07/22 10:34:21;;;;;;;22.92;8.50;;;39.50;56.70;;;;;;5073216;28;20571;-77
2022/07/22 10:37:40;;;;;;;17.50;8.27;;;40.50;55.00;;;;;;5058276;28;20266;-79
2022/07/22 10:40:31;;;;;;;15.63;8.77;;;40.90;54.00;;;;;;5055444;28;20272;-79
2022/07/22 10:43:22;;;;;;;18.58;8.75;;;41.40;54.00;;;;;;5038998;28;20227;-79
2022/07/22 10:46:12;;;;;;;11.95;8.35;;;41.60;53.50;;;;;;5059449;28;20228;-81
2022/07/22 10:49:03;;;;;;;12.48;9.23;;;41.90;51.20;;;;;;5055266;28;20337;-79
2022/07/22 10:52:11;;;;;;;10.98;8.27;;;42.40;51.00;;;;;;5051500;28;20823;-80
2022/07/22 10:55:18;;;;;;;10.45;8.10;;;41.90;52.80;;;;;;5062204;28;20305;-81
2022/07/22 10:58:46;;;;;;;9.75;7.30;;;42.10;51.50;;;;;;5038621;28;20230;-79
2022/07/22 11:01:38;;;;;;;12.93;7.88;;;42.60;51.00;;;;;;5045655;28;20224;-83
2022/07/22 11:04:27;;;;;;;11.25;7.78;;;42.80;49.70;;;;;;5042746;28;20242;-79
2022/07/22 11:07:16;;;;;;;13.05;8.10;;;42.50;49.80;;;;;;5053548;28;20314;-84
2022/07/22 11:10:12;;;;;;;10.88;7.15;;;43.00;47.80;;;;;;5038302;28;20219;-80
2022/07/22 11:13:08;;;;;;;16.77;8.18;;;43.40;47.60;;;;;;5058183;28;20227;-83
2022/07/22 11:16:15;;;;;;;12.10;7.80;;;42.80;48.40;;;;;;5056144;28;20232;-78
2022/07/22 11:19:06;;;;;;;11.43;8.50;;;42.60;49.50;;;;;;5044615;28;20224;-82
2022/07/22 11:21:57;;;;;;;10.35;7.70;;;43.00;49.00;;;;;;5057668;28;20228;-81
2022/07/22 11:24:50;;;;;;;11.02;7.32;;;42.90;50.10;;;;;;5057998;28;20316;-84
2022/07/22 11:27:39;;;;;;;11.65;7.85;;;43.30;48.00;;;;;;5076891;28;20574;-82
2022/07/22 11:30:28;;;;;;;8.88;7.68;;;43.70;46.70;;;;;;5055764;28;20384;-85
2022/07/22 11:33:16;;;;;;;13.35;7.07;;;43.80;47.30;;;;;;5061002;28;20322;-84
2022/07/22 11:36:10;;;;;;;10.02;7.07;;;43.20;48.70;;;;;;5059409;28;20224;-85
2022/07/22 11:38:59;;;;;;;18.60;16.63;;;42.70;47.90;;;;;;5074963;28;20228;-82
2022/07/22 11:41:48;;;;;;;14.05;7.40;;;42.70;48.70;;;;;;5055777;28;20224;-84
2022/07/22 11:44:38;;;;;;;15.45;7.30;;;42.20;48.20;;;;;;5045076;28;20360;-83
2022/07/22 11:47:27;;;;;;;9.30;6.75;;;42.00;47.20;;;;;;5062794;28;20224;-84
2022/07/22 11:50:16;;;;;;;9.70;6.60;;;42.60;46.60;;;;;;5059721;28;20212;-81
2022/07/22 11:53:06;;;;;;;16.27;7.93;;;42.50;45.60;;;;;;5059394;28;20227;-79
2022/07/22 11:55:58;;;;;;;15.20;8.13;;;41.90;47.20;;;;;;5059594;28;20326;-82
2022/07/22 11:58:49;;;;;;;15.23;8.68;;;40.20;49.60;;;;;;5050495;28;20662;-81
2022/07/22 12:01:38;;;;;;;14.63;9.63;;;39.70;51.30;;;;;;5054386;28;20838;-80
2022/07/22 12:04:28;;;;;;;11.55;8.43;;;38.10;54.10;;;;;;5056241;28;20302;-83
2022/07/22 12:07:17;;;;;;;16.02;9.25;;;38.40;55.50;;;;;;5064574;28;20224;-81
2022/07/22 12:10:08;;;;;;;14.38;9.23;;;38.90;53.40;;;;;;5057885;28;20272;-85
2022/07/22 12:12:57;;;;;;;12.18;9.40;;;39.10;54.40;;;;;;5072994;28;20339;-84
2022/07/22 12:15:45;;;;;;;14.80;9.00;;;39.80;52.70;;;;;;5069436;28;20220;-84
2022/07/22 12:18:40;;;;;;;15.35;8.80;;;38.50;53.20;;;;;;5064214;28;20315;-82
2022/07/22 12:21:33;;;;;;;12.88;8.60;;;37.10;55.50;;;;;;5063526;28;20273;-77
2022/07/22 12:24:31;;;;;;;17.35;9.38;;;37.10;57.00;;;;;;5064021;28;20459;-77
2022/07/22 12:27:21;;;;;;;12.45;9.73;;;37.40;56.70;;;;;;5049246;28;20709;-77
2022/07/22 12:30:14;;;;;;;14.57;9.45;;;39.50;55.20;;;;;;5062714;28;20224;-79
2022/07/22 12:33:03;;;;;;;10.23;9.25;;;40.50;53.10;;;;;;5067089;28;20241;-87
2022/07/22 12:36:06;;;;;;;14.50;7.97;;;41.30;51.60;;;;;;5046470;28;20223;-81
2022/07/22 12:38:54;;;;;;;13.60;8.55;;;41.50;50.90;;;;;;5062507;28;20728;-81
2022/07/22 12:41:49;;;;;;;27.80;10.15;;;40.80;51.50;;;;;;5061278;28;20219;-82
2022/07/22 12:44:39;;;;;;;14.77;9.05;;;40.60;52.90;;;;;;5060705;28;20215;-78
2022/07/22 12:47:48;;;;;;;9.60;7.68;;;39.30;53.60;;;;;;5059354;28;20216;-81
2022/07/22 12:50:39;;;;;;;11.80;8.07;;;38.90;54.20;;;;;;5072324;28;20216;-81
2022/07/22 12:53:29;;;;;;;10.05;7.93;;;38.00;55.00;;;;;;5060709;28;20240;-82
2022/07/22 12:56:20;;;;;;;9.35;7.50;;;37.70;56.00;;;;;;5068242;28;20447;-83
2022/07/22 12:59:09;;;;;;;13.95;8.15;;;36.90;56.80;;;;;;5082662;28;20222;-80
2022/07/22 13:01:59;;;;;;;10.10;7.55;;;36.30;57.70;;;;;;5077132;28;20702;-82
2022/07/22 13:04:49;;;;;;;10.82;8.73;;;36.30;58.70;;;;;;5072750;28;20672;-79
2022/07/22 13:07:38;;;;;;;18.45;8.73;;;36.10;59.50;;;;;;5058287;28;20223;-80
2022/07/22 13:10:27;;;;;;;13.80;8.30;;;35.90;59.50;;;;;;5062960;28;20228;-79
2022/07/22 13:13:16;;;;;;;21.25;9.60;;;35.70;59.60;;;;;;5052876;28;20228;-80
2022/07/22 13:16:05;;;;;;;22.85;9.75;;;35.40;59.60;;;;;;5076603;28;20749;-79
2022/07/22 13:18:55;;;;;;;19.23;9.45;;;35.20;62.70;;;;;;5059981;28;20316;-80
2022/07/22 13:21:44;;;;;;;12.13;8.60;;;34.90;62.90;;;;;;5055508;28;20523;-80
2022/07/22 13:24:34;;;;;;;13.85;9.88;;;34.90;61.50;;;;;;5059703;28;20216;-79
2022/07/22 13:27:23;;;;;;;12.63;9.23;;;34.90;63.20;;;;;;5054774;28;20284;-80
2022/07/22 13:30:12;;;;;;;10.50;9.32;;;34.70;61.70;;;;;;5068887;28;20212;-80
2022/07/22 13:33:01;;;;;;;13.18;8.90;;;34.60;66.10;;;;;;5058250;28;20227;-82
2022/07/22 13:35:51;;;;;;;13.27;9.32;;;34.50;63.20;;;;;;5058021;28;20224;-83
2022/07/22 13:38:40;;;;;;;16.08;9.77;;;34.50;63.50;;;;;;5048473;28;20228;-79
2022/07/22 13:41:29;;;;;;;12.82;9.32;;;34.30;63.60;;;;;;5043600;28;20323;-83
2022/07/22 13:44:18;;;;;;;13.30;9.38;;;34.20;65.10;;;;;;5039812;28;20287;-83
2022/07/22 13:47:06;;;;;;;11.70;9.70;;;34.00;63.40;;;;;;5059151;28;20389;-81
2022/07/22 13:49:56;;;;;;;11.85;9.48;;;33.90;64.10;;;;;;5059410;28;20230;-82
2022/07/22 13:52:47;;;;;;;13.63;10.07;;;33.90;65.90;;;;;;5061943;28;20315;-84
2022/07/22 13:55:38;;;;;;;11.23;9.70;;;33.80;65.80;;;;;;5045519;28;20704;-82
2022/07/22 13:58:27;;;;;;;16.60;9.93;;;33.80;65.20;;;;;;5046648;28;20216;-82
2022/07/22 14:01:15;;;;;;;10.88;9.45;;;33.90;65.80;;;;;;5044095;28;20207;-83
2022/07/22 14:04:06;;;;;;;14.60;9.52;;;33.80;66.40;;;;;;5056743;28;20219;-82
2022/07/22 14:06:56;;;;;;;14.13;10.27;;;33.70;67.30;;;;;;5054282;28;20245;-83
2022/07/22 14:09:46;;;;;;;14.73;10.07;;;33.40;67.10;;;;;;5059769;28;20358;-83
2022/07/22 14:12:35;;;;;;;11.07;9.82;;;33.60;66.00;;;;;;5048038;28;20227;-83
2022/07/22 14:15:24;;;;;;;10.90;8.95;;;33.50;67.00;;;;;;5063953;28;20247;-81
2022/07/22 14:18:13;;;;;;;12.30;10.02;;;33.40;66.20;;;;;;5058292;28;20215;-80
2022/07/22 14:21:01;;;;;;;13.45;10.00;;;33.40;66.40;;;;;;5055269;28;20229;-81
2022/07/22 14:23:50;;;;;;;13.55;9.45;;;33.20;67.00;;;;;;5045288;28;20223;-81
2022/07/22 14:26:42;;;;;;;12.50;9.77;;;33.20;67.00;;;;;;5055721;28;20555;-81
2022/07/22 14:29:30;;;;;;;14.98;10.88;;;33.20;68.50;;;;;;5063395;28;20272;-83
2022/07/22 14:32:19;;;;;;;20.02;10.63;;;33.10;68.30;;;;;;5044773;28;20628;-83
2022/07/22 14:35:08;;;;;;;24.48;10.70;;;33.00;68.50;;;;;;5061283;28;20226;-84
2022/07/22 14:37:57;;;;;;;12.15;10.25;;;33.00;68.60;;;;;;5046064;28;20582;-81
2022/07/22 14:40:46;;;;;;;15.10;10.68;;;32.90;68.90;;;;;;5060891;28;20702;-81
2022/07/22 14:43:36;;;;;;;14.05;10.68;;;32.80;69.80;;;;;;5074620;28;20252;-81
2022/07/22 14:46:30;;;;;;;14.98;10.25;;;32.80;69.20;;;;;;5041382;28;20307;-80